sensor_id;sensor_type;location;lat;lon;timestamp;pressure;altitude;pressure_sealevel;temperature;humidity
21547;BME280;41275;51.912;4.388;2023-04-10T00:03:30;101979.94;;;18.13;36.52
21547;BME280;41275;51.912;4.388;2023-04-10T00:08:52;101974.25;;;18.10;37.03
21547;BME280;41275;51.912;4.388;2023-04-10T00:14:14;101974.56;;;18.13;37.09
21547;BME280;41275;51.912;4.388;2023-04-10T00:19:35;101974.53;;;18.08;37.25
21547;BME280;41275;51.912;4.388;2023-04-10T00:24:56;101969.41;;;18.07;37.26
21547;BME280;41275;51.912;4.388;2023-04-10T00:30:18;101965.59;;;18.03;37.52
21547;BME280;41275;51.912;4.388;2023-04-10T00:35:39;101954.34;;;18.01;37.82
21547;BME280;41275;51.912;4.388;2023-04-10T00:41:00;101961.25;;;17.97;38.15
21547;BME280;41275;51.912;4.388;2023-04-10T00:46:22;101946.31;;;17.84;38.44
21547;BME280;41275;51.912;4.388;2023-04-10T00:51:44;101932.72;;;17.69;39.01
21547;BME280;41275;51.912;4.388;2023-04-10T00:57:05;101922.50;;;17.65;38.80
21547;BME280;41275;51.912;4.388;2023-04-10T01:02:26;101920.06;;;17.64;38.63
21547;BME280;41275;51.912;4.388;2023-04-10T01:13:34;101890.59;;;17.42;39.32
21547;BME280;41275;51.912;4.388;2023-04-10T01:19:14;101891.13;;;17.44;39.42
21547;BME280;41275;51.912;4.388;2023-04-10T01:30:23;101879.72;;;17.32;39.58
21547;BME280;41275;51.912;4.388;2023-04-10T01:35:49;101887.09;;;17.25;39.89
21547;BME280;41275;51.912;4.388;2023-04-10T01:41:12;101872.53;;;17.15;40.11
21547;BME280;41275;51.912;4.388;2023-04-10T01:46:36;101876.19;;;17.09;40.39
21547;BME280;41275;51.912;4.388;2023-04-10T01:51:59;101871.81;;;17.03;40.50
21547;BME280;41275;51.912;4.388;2023-04-10T01:57:20;101870.91;;;16.98;40.90
21547;BME280;41275;51.912;4.388;2023-04-10T02:02:42;101863.81;;;16.86;40.76
21547;BME280;41275;51.912;4.388;2023-04-10T02:08:14;101863.16;;;16.79;41.30
21547;BME280;41275;51.912;4.388;2023-04-10T02:13:39;101877.59;;;16.78;40.95
21547;BME280;41275;51.912;4.388;2023-04-10T02:19:01;101867.81;;;16.72;41.62
21547;BME280;41275;51.912;4.388;2023-04-10T02:24:24;101871.91;;;16.75;41.58
21547;BME280;41275;51.912;4.388;2023-04-10T02:29:46;101860.03;;;16.71;41.66
21547;BME280;41275;51.912;4.388;2023-04-10T02:35:07;101862.94;;;16.69;41.73
21547;BME280;41275;51.912;4.388;2023-04-10T02:40:28;101867.47;;;16.68;41.92
21547;BME280;41275;51.912;4.388;2023-04-10T02:45:49;101877.25;;;16.75;42.24
21547;BME280;41275;51.912;4.388;2023-04-10T02:51:11;101877.00;;;16.76;42.38
21547;BME280;41275;51.912;4.388;2023-04-10T02:56:33;101862.81;;;16.76;42.14
21547;BME280;41275;51.912;4.388;2023-04-10T03:01:54;101859.66;;;16.79;42.03
21547;BME280;41275;51.912;4.388;2023-04-10T03:07:16;101856.19;;;16.78;42.06
21547;BME280;41275;51.912;4.388;2023-04-10T03:12:37;101847.47;;;16.71;42.06
21547;BME280;41275;51.912;4.388;2023-04-10T03:17:58;101848.50;;;16.70;42.14
21547;BME280;41275;51.912;4.388;2023-04-10T03:23:19;101858.06;;;16.66;42.18
21547;BME280;41275;51.912;4.388;2023-04-10T03:28:41;101836.94;;;16.64;41.95
21547;BME280;41275;51.912;4.388;2023-04-10T03:34:02;101829.41;;;16.61;41.75
21547;BME280;41275;51.912;4.388;2023-04-10T03:39:23;101823.72;;;16.58;41.86
21547;BME280;41275;51.912;4.388;2023-04-10T03:44:45;101811.16;;;16.58;41.97
21547;BME280;41275;51.912;4.388;2023-04-10T03:50:06;101808.03;;;16.61;41.84
21547;BME280;41275;51.912;4.388;2023-04-10T03:55:27;101805.94;;;16.63;41.61
21547;BME280;41275;51.912;4.388;2023-04-10T04:00:48;101803.06;;;16.70;41.29
21547;BME280;41275;51.912;4.388;2023-04-10T04:06:10;101795.41;;;16.74;41.34
21547;BME280;41275;51.912;4.388;2023-04-10T04:11:31;101793.06;;;16.77;41.11
21547;BME280;41275;51.912;4.388;2023-04-10T04:16:52;101785.16;;;16.82;40.96
21547;BME280;41275;51.912;4.388;2023-04-10T04:22:14;101783.34;;;16.88;40.88
21547;BME280;41275;51.912;4.388;2023-04-10T04:27:36;101773.63;;;16.82;40.70
21547;BME280;41275;51.912;4.388;2023-04-10T04:32:57;101766.19;;;16.84;40.53
21547;BME280;41275;51.912;4.388;2023-04-10T04:38:18;101760.25;;;16.82;40.55
21547;BME280;41275;51.912;4.388;2023-04-10T04:43:40;101752.97;;;16.77;40.40
21547;BME280;41275;51.912;4.388;2023-04-10T04:49:01;101761.00;;;16.77;40.37
21547;BME280;41275;51.912;4.388;2023-04-10T04:54:23;101760.19;;;16.77;40.16
21547;BME280;41275;51.912;4.388;2023-04-10T04:59:44;101759.97;;;16.78;40.14
21547;BME280;41275;51.912;4.388;2023-04-10T05:05:05;101744.84;;;16.89;39.66
21547;BME280;41275;51.912;4.388;2023-04-10T05:10:27;101751.59;;;16.91;39.96
21547;BME280;41275;51.912;4.388;2023-04-10T05:15:48;101743.81;;;16.90;39.78
21547;BME280;41275;51.912;4.388;2023-04-10T05:21:10;101750.28;;;16.94;40.00
21547;BME280;41275;51.912;4.388;2023-04-10T05:26:32;101752.41;;;16.92;39.88
21547;BME280;41275;51.912;4.388;2023-04-10T05:31:53;101740.53;;;17.05;39.48
21547;BME280;41275;51.912;4.388;2023-04-10T05:37:14;101738.75;;;17.10;39.16
21547;BME280;41275;51.912;4.388;2023-04-10T05:42:35;101731.28;;;17.12;39.33
21547;BME280;41275;51.912;4.388;2023-04-10T05:47:57;101724.06;;;17.13;38.87
21547;BME280;41275;51.912;4.388;2023-04-10T05:53:19;101721.94;;;17.15;39.02
21547;BME280;41275;51.912;4.388;2023-04-10T05:58:41;101727.34;;;17.20;38.36
21547;BME280;41275;51.912;4.388;2023-04-10T06:04:02;101723.69;;;17.26;38.26
21547;BME280;41275;51.912;4.388;2023-04-10T06:09:23;101706.59;;;17.27;38.17
21547;BME280;41275;51.912;4.388;2023-04-10T06:14:46;101701.28;;;17.32;37.97
21547;BME280;41275;51.912;4.388;2023-04-10T06:20:08;101690.41;;;17.39;37.76
21547;BME280;41275;51.912;4.388;2023-04-10T06:25:29;101684.34;;;17.49;37.84
21547;BME280;41275;51.912;4.388;2023-04-10T06:30:50;101671.66;;;17.61;37.22
21547;BME280;41275;51.912;4.388;2023-04-10T06:36:12;101660.47;;;17.69;37.03
21547;BME280;41275;51.912;4.388;2023-04-10T06:41:33;101660.84;;;17.78;36.44
21547;BME280;41275;51.912;4.388;2023-04-10T06:46:54;101653.25;;;17.97;36.14
21547;BME280;41275;51.912;4.388;2023-04-10T06:52:16;101658.19;;;18.10;36.22
21547;BME280;41275;51.912;4.388;2023-04-10T06:57:38;101652.66;;;18.27;35.84
21547;BME280;41275;51.912;4.388;2023-04-10T07:02:59;101649.28;;;18.42;35.53
21547;BME280;41275;51.912;4.388;2023-04-10T07:08:20;101635.69;;;18.53;35.88
21547;BME280;41275;51.912;4.388;2023-04-10T07:13:41;101636.25;;;18.55;35.26
21547;BME280;41275;51.912;4.388;2023-04-10T07:19:03;101628.50;;;18.59;35.51
21547;BME280;41275;51.912;4.388;2023-04-10T07:24:24;101610.56;;;18.64;35.66
21547;BME280;41275;51.912;4.388;2023-04-10T07:29:45;101607.41;;;18.78;35.09
21547;BME280;41275;51.912;4.388;2023-04-10T07:35:07;101601.31;;;18.93;34.70
21547;BME280;41275;51.912;4.388;2023-04-10T07:40:28;101595.44;;;18.96;34.58
21547;BME280;41275;51.912;4.388;2023-04-10T07:45:50;101583.38;;;19.08;34.83
21547;BME280;41275;51.912;4.388;2023-04-10T07:51:11;101574.25;;;19.09;34.52
21547;BME280;41275;51.912;4.388;2023-04-10T07:56:32;101575.31;;;19.03;34.87
21547;BME280;41275;51.912;4.388;2023-04-10T08:01:54;101571.84;;;19.03;34.92
21547;BME280;41275;51.912;4.388;2023-04-10T08:07:15;101553.06;;;19.13;35.04
21547;BME280;41275;51.912;4.388;2023-04-10T08:12:37;101542.13;;;19.30;34.84
21547;BME280;41275;51.912;4.388;2023-04-10T08:17:58;101534.06;;;19.50;34.51
21547;BME280;41275;51.912;4.388;2023-04-10T08:23:19;101531.94;;;19.68;34.23
21547;BME280;41275;51.912;4.388;2023-04-10T08:28:40;101531.63;;;19.84;34.25
21547;BME280;41275;51.912;4.388;2023-04-10T08:34:02;101531.06;;;20.13;34.15
21547;BME280;41275;51.912;4.388;2023-04-10T08:39:24;101528.56;;;20.27;33.29
21547;BME280;41275;51.912;4.388;2023-04-10T08:44:47;101512.94;;;20.39;33.65
21547;BME280;41275;51.912;4.388;2023-04-10T08:50:10;101501.91;;;20.51;33.30
21547;BME280;41275;51.912;4.388;2023-04-10T08:55:33;101483.63;;;20.43;33.46
21547;BME280;41275;51.912;4.388;2023-04-10T09:00:55;101484.19;;;20.40;33.78
21547;BME280;41275;51.912;4.388;2023-04-10T09:06:16;101476.88;;;20.55;33.68
21547;BME280;41275;51.912;4.388;2023-04-10T09:17:22;101459.56;;;20.72;33.14
21547;BME280;41275;51.912;4.388;2023-04-10T09:22:43;101456.66;;;20.63;33.35
21547;BME280;41275;51.912;4.388;2023-04-10T09:28:06;101453.00;;;20.88;33.24
21547;BME280;41275;51.912;4.388;2023-04-10T09:33:28;101446.38;;;21.09;32.92
21547;BME280;41275;51.912;4.388;2023-04-10T09:38:50;101443.69;;;21.09;32.78
21547;BME280;41275;51.912;4.388;2023-04-10T09:44:12;101435.06;;;21.47;32.64
21547;BME280;41275;51.912;4.388;2023-04-10T09:49:44;101429.44;;;21.67;32.29
21547;BME280;41275;51.912;4.388;2023-04-10T09:55:06;101412.56;;;21.62;32.26
21547;BME280;41275;51.912;4.388;2023-04-10T10:00:28;101411.38;;;21.68;32.13
21547;BME280;41275;51.912;4.388;2023-04-10T10:05:50;101400.47;;;22.02;31.92
21547;BME280;41275;51.912;4.388;2023-04-10T10:11:16;101394.16;;;22.12;31.36
21547;BME280;41275;51.912;4.388;2023-04-10T10:16:42;101386.31;;;22.53;31.40
21547;BME280;41275;51.912;4.388;2023-04-10T10:22:05;101383.41;;;23.01;30.96
21547;BME280;41275;51.912;4.388;2023-04-10T10:27:36;101363.88;;;23.23;30.43
21547;BME280;41275;51.912;4.388;2023-04-10T10:32:58;101343.88;;;23.51;30.18
21547;BME280;41275;51.912;4.388;2023-04-10T10:38:21;101317.38;;;23.67;30.16
21547;BME280;41275;51.912;4.388;2023-04-10T10:44:07;101306.97;;;24.11;29.63
21547;BME280;41275;51.912;4.388;2023-04-10T10:50:10;101306.78;;;24.52;29.37
21547;BME280;41275;51.912;4.388;2023-04-10T10:55:31;101295.13;;;24.65;28.84
21547;BME280;41275;51.912;4.388;2023-04-10T11:06:19;101272.91;;;24.10;29.09
21547;BME280;41275;51.912;4.388;2023-04-10T11:11:56;101267.59;;;23.82;29.73
21547;BME280;41275;51.912;4.388;2023-04-10T11:17:45;101260.91;;;23.80;29.91
21547;BME280;41275;51.912;4.388;2023-04-10T11:23:10;101248.91;;;23.72;30.11
21547;BME280;41275;51.912;4.388;2023-04-10T11:28:37;101241.53;;;23.36;30.08
21547;BME280;41275;51.912;4.388;2023-04-10T11:34:03;101239.66;;;23.09;30.61
21547;BME280;41275;51.912;4.388;2023-04-10T11:39:25;101224.06;;;22.92;31.32
21547;BME280;41275;51.912;4.388;2023-04-10T11:44:47;101210.25;;;22.80;31.41
21547;BME280;41275;51.912;4.388;2023-04-10T11:50:09;101199.44;;;22.80;31.73
21547;BME280;41275;51.912;4.388;2023-04-10T11:55:37;101188.84;;;22.70;32.08
21547;BME280;41275;51.912;4.388;2023-04-10T12:01:03;101193.81;;;22.63;32.15
21547;BME280;41275;51.912;4.388;2023-04-10T12:06:24;101201.50;;;22.55;32.26
21547;BME280;41275;51.912;4.388;2023-04-10T12:11:52;101193.41;;;22.55;33.73
21547;BME280;41275;51.912;4.388;2023-04-10T12:17:15;101191.81;;;22.54;34.69
21547;BME280;41275;51.912;4.388;2023-04-10T12:22:36;101186.00;;;22.47;35.47
21547;BME280;41275;51.912;4.388;2023-04-10T12:27:58;101171.63;;;22.24;36.32
21547;BME280;41275;51.912;4.388;2023-04-10T12:33:23;101185.47;;;21.99;37.16
21547;BME280;41275;51.912;4.388;2023-04-10T12:38:44;101170.16;;;21.62;37.94
21547;BME280;41275;51.912;4.388;2023-04-10T12:44:10;101153.19;;;21.42;38.84
21547;BME280;41275;51.912;4.388;2023-04-10T12:49:32;101144.16;;;21.33;39.46
21547;BME280;41275;51.912;4.388;2023-04-10T12:54:53;101119.28;;;20.98;39.95
21547;BME280;41275;51.912;4.388;2023-04-10T13:00:16;101117.59;;;20.83;40.60
21547;BME280;41275;51.912;4.388;2023-04-10T13:05:38;101117.22;;;20.71;41.12
21547;BME280;41275;51.912;4.388;2023-04-10T13:10:59;101105.72;;;20.66;41.38
21547;BME280;41275;51.912;4.388;2023-04-10T13:16:22;101095.50;;;20.63;41.95
21547;BME280;41275;51.912;4.388;2023-04-10T13:21:44;101086.81;;;20.71;42.16
21547;BME280;41275;51.912;4.388;2023-04-10T13:27:05;101086.88;;;20.66;42.54
21547;BME280;41275;51.912;4.388;2023-04-10T13:32:26;101084.66;;;20.73;42.79
21547;BME280;41275;51.912;4.388;2023-04-10T13:38:03;101083.59;;;20.45;43.09
21547;BME280;41275;51.912;4.388;2023-04-10T13:43:24;101072.00;;;20.25;43.56
21547;BME280;41275;51.912;4.388;2023-04-10T13:48:45;101074.28;;;20.13;44.09
21547;BME280;41275;51.912;4.388;2023-04-10T13:54:07;101063.19;;;19.61;44.88
21547;BME280;41275;51.912;4.388;2023-04-10T13:59:30;101045.91;;;19.33;45.99
21547;BME280;41275;51.912;4.388;2023-04-10T14:04:51;101021.78;;;19.28;46.66
21547;BME280;41275;51.912;4.388;2023-04-10T14:10:12;101006.13;;;19.41;46.81
21547;BME280;41275;51.912;4.388;2023-04-10T14:15:34;101010.63;;;19.50;47.35
21547;BME280;41275;51.912;4.388;2023-04-10T14:20:55;101004.91;;;19.57;47.27
21547;BME280;41275;51.912;4.388;2023-04-10T14:26:16;101006.22;;;19.65;47.44
21547;BME280;41275;51.912;4.388;2023-04-10T14:31:38;100992.44;;;19.42;47.64
21547;BME280;41275;51.912;4.388;2023-04-10T14:36:59;101009.78;;;19.21;47.94
21547;BME280;41275;51.912;4.388;2023-04-10T14:42:20;101002.63;;;19.06;48.15
21547;BME280;41275;51.912;4.388;2023-04-10T14:47:43;100983.44;;;18.88;48.78
21547;BME280;41275;51.912;4.388;2023-04-10T14:53:05;100996.94;;;18.68;49.36
21547;BME280;41275;51.912;4.388;2023-04-10T14:58:26;100995.66;;;18.55;50.02
21547;BME280;41275;51.912;4.388;2023-04-10T15:03:47;100994.88;;;18.50;50.57
21547;BME280;41275;51.912;4.388;2023-04-10T15:09:08;100997.03;;;18.43;51.12
21547;BME280;41275;51.912;4.388;2023-04-10T15:14:30;101001.91;;;18.30;51.87
21547;BME280;41275;51.912;4.388;2023-04-10T15:19:51;101004.03;;;18.33;52.33
21547;BME280;41275;51.912;4.388;2023-04-10T15:25:12;100996.81;;;18.34;52.67
21547;BME280;41275;51.912;4.388;2023-04-10T15:30:33;100968.38;;;18.43;52.62
21547;BME280;41275;51.912;4.388;2023-04-10T15:35:55;100967.84;;;18.41;53.10
21547;BME280;41275;51.912;4.388;2023-04-10T15:41:16;100951.25;;;18.34;53.45
21547;BME280;41275;51.912;4.388;2023-04-10T15:46:37;100941.38;;;18.29;53.41
21547;BME280;41275;51.912;4.388;2023-04-10T15:51:58;100936.00;;;18.29;53.39
21547;BME280;41275;51.912;4.388;2023-04-10T15:57:20;100945.38;;;18.27;53.79
21547;BME280;41275;51.912;4.388;2023-04-10T16:02:41;100907.88;;;18.27;53.59
21547;BME280;41275;51.912;4.388;2023-04-10T16:08:02;100892.06;;;18.30;53.52
21547;BME280;41275;51.912;4.388;2023-04-10T16:13:23;100902.50;;;18.37;53.82
21547;BME280;41275;51.912;4.388;2023-04-10T16:18:45;100886.91;;;18.39;53.97
21547;BME280;41275;51.912;4.388;2023-04-10T16:24:06;100912.88;;;18.49;53.55
21547;BME280;41275;51.912;4.388;2023-04-10T16:29:27;100906.47;;;18.45;53.64
21547;BME280;41275;51.912;4.388;2023-04-10T16:34:48;100909.16;;;18.45;53.36
21547;BME280;41275;51.912;4.388;2023-04-10T16:40:10;100915.00;;;18.52;53.63
21547;BME280;41275;51.912;4.388;2023-04-10T16:45:32;100915.16;;;18.76;53.20
21547;BME280;41275;51.912;4.388;2023-04-10T16:50:53;100919.72;;;18.70;52.98
21547;BME280;41275;51.912;4.388;2023-04-10T16:56:15;100900.69;;;18.67;52.73
21547;BME280;41275;51.912;4.388;2023-04-10T17:01:36;100880.06;;;18.72;52.76
21547;BME280;41275;51.912;4.388;2023-04-10T17:06:59;100870.09;;;18.78;52.81
21547;BME280;41275;51.912;4.388;2023-04-10T17:12:20;100856.81;;;18.97;51.87
21547;BME280;41275;51.912;4.388;2023-04-10T17:17:42;100858.97;;;18.95;51.62
21547;BME280;41275;51.912;4.388;2023-04-10T17:23:03;100838.59;;;18.94;51.12
21547;BME280;41275;51.912;4.388;2023-04-10T17:28:24;100837.97;;;19.02;50.54
21547;BME280;41275;51.912;4.388;2023-04-10T17:33:46;100857.78;;;19.06;50.31
21547;BME280;41275;51.912;4.388;2023-04-10T17:39:07;100846.25;;;19.05;49.78
21547;BME280;41275;51.912;4.388;2023-04-10T17:44:28;100847.50;;;19.18;49.46
21547;BME280;41275;51.912;4.388;2023-04-10T17:49:49;100846.78;;;19.07;48.68
21547;BME280;41275;51.912;4.388;2023-04-10T17:55:10;100840.63;;;19.07;48.73
21547;BME280;41275;51.912;4.388;2023-04-10T18:00:32;100825.94;;;18.99;48.38
21547;BME280;41275;51.912;4.388;2023-04-10T18:05:54;100843.44;;;18.92;48.24
21547;BME280;41275;51.912;4.388;2023-04-10T18:11:15;100835.47;;;18.81;48.06
21547;BME280;41275;51.912;4.388;2023-04-10T18:16:36;100830.44;;;18.70;48.04
21547;BME280;41275;51.912;4.388;2023-04-10T18:21:58;100829.75;;;18.59;48.19
21547;BME280;41275;51.912;4.388;2023-04-10T18:27:22;100815.00;;;18.56;48.09
21547;BME280;41275;51.912;4.388;2023-04-10T18:32:43;100787.56;;;18.35;48.55
21547;BME280;41275;51.912;4.388;2023-04-10T18:38:05;100804.81;;;18.19;48.82
21547;BME280;41275;51.912;4.388;2023-04-10T18:43:26;100807.47;;;18.19;48.86
21547;BME280;41275;51.912;4.388;2023-04-10T18:48:47;100825.47;;;18.13;48.95
21547;BME280;41275;51.912;4.388;2023-04-10T18:54:13;100833.25;;;18.10;48.97
21547;BME280;41275;51.912;4.388;2023-04-10T18:59:36;100829.56;;;18.01;49.50
21547;BME280;41275;51.912;4.388;2023-04-10T19:04:57;100819.44;;;17.93;49.31
21547;BME280;41275;51.912;4.388;2023-04-10T19:10:18;100813.28;;;17.87;49.68
21547;BME280;41275;51.912;4.388;2023-04-10T19:15:46;100798.00;;;17.93;50.08
21547;BME280;41275;51.912;4.388;2023-04-10T19:21:07;100802.78;;;17.96;49.99
21547;BME280;41275;51.912;4.388;2023-04-10T19:26:29;100801.50;;;17.88;49.93
21547;BME280;41275;51.912;4.388;2023-04-10T19:31:50;100803.88;;;17.95;50.21
21547;BME280;41275;51.912;4.388;2023-04-10T19:37:11;100809.19;;;18.00;49.73
21547;BME280;41275;51.912;4.388;2023-04-10T19:42:33;100810.53;;;18.02;49.68
21547;BME280;41275;51.912;4.388;2023-04-10T19:47:55;100822.81;;;18.08;49.73
21547;BME280;41275;51.912;4.388;2023-04-10T19:53:16;100818.22;;;18.14;49.80
21547;BME280;41275;51.912;4.388;2023-04-10T19:58:37;100803.50;;;18.17;49.40
21547;BME280;41275;51.912;4.388;2023-04-10T20:03:59;100796.53;;;18.15;49.00
21547;BME280;41275;51.912;4.388;2023-04-10T20:09:20;100795.72;;;18.15;49.29
21547;BME280;41275;51.912;4.388;2023-04-10T20:14:41;100787.78;;;18.00;49.13
21547;BME280;41275;51.912;4.388;2023-04-10T20:20:05;100792.63;;;17.98;48.97
21547;BME280;41275;51.912;4.388;2023-04-10T20:25:26;100794.22;;;17.99;49.33
21547;BME280;41275;51.912;4.388;2023-04-10T20:30:48;100777.19;;;17.84;49.62
21547;BME280;41275;51.912;4.388;2023-04-10T20:36:09;100768.94;;;17.65;49.77
21547;BME280;41275;51.912;4.388;2023-04-10T20:41:30;100756.94;;;17.53;49.77
21547;BME280;41275;51.912;4.388;2023-04-10T20:46:52;100767.09;;;17.56;50.06
21547;BME280;41275;51.912;4.388;2023-04-10T20:52:13;100770.34;;;17.53;49.91
21547;BME280;41275;51.912;4.388;2023-04-10T20:57:34;100773.78;;;17.58;49.71
21547;BME280;41275;51.912;4.388;2023-04-10T21:02:56;100763.84;;;17.64;49.56
21547;BME280;41275;51.912;4.388;2023-04-10T21:08:17;100765.72;;;17.69;48.81
21547;BME280;41275;51.912;4.388;2023-04-10T21:13:39;100775.88;;;17.77;48.83
21547;BME280;41275;51.912;4.388;2023-04-10T21:19:00;100780.16;;;17.78;48.38
21547;BME280;41275;51.912;4.388;2023-04-10T21:24:21;100796.72;;;17.80;48.39
21547;BME280;41275;51.912;4.388;2023-04-10T21:29:44;100857.06;;;17.16;47.17
21547;BME280;41275;51.912;4.388;2023-04-10T21:35:05;100840.75;;;15.26;47.90
21547;BME280;41275;51.912;4.388;2023-04-10T21:40:27;100837.91;;;14.46;48.06
21547;BME280;41275;51.912;4.388;2023-04-10T21:45:53;100798.53;;;14.21;48.14
21547;BME280;41275;51.912;4.388;2023-04-10T21:51:15;100778.38;;;14.30;48.43
21547;BME280;41275;51.912;4.388;2023-04-10T21:56:36;100790.69;;;14.58;48.25
21547;BME280;41275;51.912;4.388;2023-04-10T22:01:58;100794.00;;;15.13;48.94
21547;BME280;41275;51.912;4.388;2023-04-10T22:07:19;100803.03;;;15.59;49.29
21547;BME280;41275;51.912;4.388;2023-04-10T22:12:41;100801.28;;;15.75;49.99
21547;BME280;41275;51.912;4.388;2023-04-10T22:18:02;100795.72;;;15.87;49.70
21547;BME280;41275;51.912;4.388;2023-04-10T22:23:23;100808.03;;;15.93;49.25
21547;BME280;41275;51.912;4.388;2023-04-10T22:28:44;100806.16;;;15.93;48.51
21547;BME280;41275;51.912;4.388;2023-04-10T22:34:09;100820.31;;;15.99;47.70
21547;BME280;41275;51.912;4.388;2023-04-10T22:39:30;100799.25;;;16.08;47.37
21547;BME280;41275;51.912;4.388;2023-04-10T22:44:51;100802.22;;;16.11;47.78
21547;BME280;41275;51.912;4.388;2023-04-10T22:50:13;100800.91;;;16.24;47.62
21547;BME280;41275;51.912;4.388;2023-04-10T22:55:36;100806.25;;;16.24;48.48
21547;BME280;41275;51.912;4.388;2023-04-10T23:00:57;100808.38;;;16.27;49.30
21547;BME280;41275;51.912;4.388;2023-04-10T23:06:19;100811.56;;;16.24;50.35
21547;BME280;41275;51.912;4.388;2023-04-10T23:11:40;100807.56;;;16.27;50.72
21547;BME280;41275;51.912;4.388;2023-04-10T23:17:01;100809.44;;;16.21;51.28
21547;BME280;41275;51.912;4.388;2023-04-10T23:22:22;100814.75;;;16.16;51.55
21547;BME280;41275;51.912;4.388;2023-04-10T23:27:43;100817.69;;;16.14;51.16
21547;BME280;41275;51.912;4.388;2023-04-10T23:33:05;100818.22;;;16.11;51.46
21547;BME280;41275;51.912;4.388;2023-04-10T23:38:26;100819.28;;;16.10;51.08
21547;BME280;41275;51.912;4.388;2023-04-10T23:43:47;100816.88;;;16.09;51.36
21547;BME280;41275;51.912;4.388;2023-04-10T23:49:08;100834.47;;;16.05;50.96
21547;BME280;41275;51.912;4.388;2023-04-10T23:54:30;100836.09;;;16.06;51.26
21547;BME280;41275;51.912;4.388;2023-04-10T23:59:51;100849.44;;;16.06;51.33
